Time;durP1;ratioP1;P1;durP2;ratioP2;P2;SDS_P1;SDS_P2;PMS_P1;PMS_P2;Temp;Humidity;BMP_temperature;BMP_pressure;BME280_temperature;BME280_humidity;BME280_pressure;Samples;Min_cycle;Max_cycle;Signal;HPM_P1;HPM_P2
2023/12/27 00:00:04;;;;;;;3.30;1.20;;;;;;;;;;5026858;28;20025;-67
2023/12/27 00:02:31;;;;;;;1.35;1.35;;;;;;;;;;5025737;28;20025;-69
2023/12/27 00:04:57;;;;;;;2.88;1.52;;;;;;;;;;5029422;28;20021;-69
2023/12/27 00:07:23;;;;;;;2.47;1.40;;;;;;;;;;5025810;28;20022;-67
2023/12/27 00:09:49;;;;;;;3.08;1.88;;;;;;;;;;5029921;28;20538;-68
2023/12/27 00:12:16;;;;;;;1.60;1.50;;;;;;;;;;5017206;28;20109;-68
2023/12/27 00:14:42;;;;;;;2.78;1.60;;;;;;;;;;5029261;28;20449;-69
2023/12/27 00:17:08;;;;;;;1.42;1.33;;;;;;;;;;5028214;28;20038;-68
2023/12/27 00:19:35;;;;;;;1.25;1.20;;;;;;;;;;5029213;28;20041;-68
2023/12/27 00:22:01;;;;;;;1.58;1.48;;;;;;;;;;5022511;28;20038;-68
2023/12/27 00:24:27;;;;;;;1.30;1.30;;;;;;;;;;5018246;28;20025;-66
2023/12/27 00:26:54;;;;;;;1.63;1.52;;;;;;;;;;5020568;28;20484;-67
2023/12/27 00:29:20;;;;;;;1.63;1.50;;;;;;;;;;5019023;28;20025;-68
2023/12/27 00:31:46;;;;;;;3.15;1.40;;;;;;;;;;5020491;28;20057;-68
2023/12/27 00:34:12;;;;;;;3.08;1.95;;;;;;;;;;5024383;28;20018;-66
2023/12/27 00:36:38;;;;;;;1.30;1.20;;;;;;;;;;5025193;28;20428;-67
2023/12/27 00:39:08;;;;;;;2.45;1.63;;;;;;;;;;5027063;28;20029;-68
2023/12/27 00:41:34;;;;;;;1.20;1.20;;;;;;;;;;5018900;28;20022;-68
2023/12/27 00:44:00;;;;;;;1.27;1.27;;;;;;;;;;5024121;28;20631;-68
2023/12/27 00:46:27;;;;;;;2.03;1.48;;;;;;;;;;5021772;28;20045;-68
2023/12/27 00:48:53;;;;;;;1.50;1.50;;;;;;;;;;5025514;28;20025;-66
2023/12/27 00:51:20;;;;;;;4.68;1.63;;;;;;;;;;5022630;28;20429;-68
2023/12/27 00:53:46;;;;;;;1.40;1.35;;;;;;;;;;5028053;28;20033;-67
2023/12/27 00:56:12;;;;;;;1.42;1.33;;;;;;;;;;5024132;28;20796;-67
2023/12/27 00:58:39;;;;;;;1.85;1.38;;;;;;;;;;5025546;28;20084;-67
2023/12/27 01:01:05;;;;;;;1.20;1.20;;;;;;;;;;5024094;28;20026;-67
2023/12/27 01:03:32;;;;;;;1.30;1.30;;;;;;;;;;5017874;28;20037;-67
2023/12/27 01:05:58;;;;;;;1.17;1.17;;;;;;;;;;5020092;28;20562;-68
2023/12/27 01:08:24;;;;;;;1.67;1.40;;;;;;;;;;5022241;28;20048;-68
2023/12/27 01:10:50;;;;;;;1.20;1.20;;;;;;;;;;5026802;28;20559;-68
2023/12/27 01:13:16;;;;;;;1.40;1.40;;;;;;;;;;5025892;28;20566;-68
2023/12/27 01:15:43;;;;;;;1.25;1.25;;;;;;;;;;5027029;28;20033;-69
2023/12/27 01:18:10;;;;;;;1.10;1.10;;;;;;;;;;5028224;28;20037;-68
2023/12/27 01:20:36;;;;;;;1.60;1.50;;;;;;;;;;5026001;28;20026;-68
2023/12/27 01:23:02;;;;;;;1.08;1.08;;;;;;;;;;5028302;28;20033;-68
2023/12/27 01:25:28;;;;;;;1.10;1.10;;;;;;;;;;5018388;28;20370;-68
2023/12/27 01:27:54;;;;;;;1.50;1.50;;;;;;;;;;5025898;28;20052;-68
2023/12/27 01:30:21;;;;;;;1.20;1.20;;;;;;;;;;5026716;28;20141;-68
2023/12/27 01:32:47;;;;;;;1.20;1.20;;;;;;;;;;5026156;28;20432;-67
2023/12/27 01:35:13;;;;;;;1.10;1.10;;;;;;;;;;5018305;28;20048;-68
2023/12/27 01:37:39;;;;;;;1.00;1.00;;;;;;;;;;5021914;28;20520;-67
2023/12/27 01:40:06;;;;;;;1.60;1.50;;;;;;;;;;5023256;28;20128;-67
2023/12/27 01:42:37;;;;;;;1.17;1.17;;;;;;;;;;5016158;28;20067;-68
2023/12/27 01:45:04;;;;;;;1.40;1.30;;;;;;;;;;5019768;28;20048;-68
2023/12/27 01:47:30;;;;;;;1.40;1.27;;;;;;;;;;5016650;28;20034;-68
2023/12/27 01:49:56;;;;;;;1.23;1.23;;;;;;;;;;5023258;28;20029;-67
2023/12/27 01:52:23;;;;;;;1.20;1.20;;;;;;;;;;5020576;28;20025;-66
2023/12/27 01:54:50;;;;;;;1.38;1.30;;;;;;;;;;5014472;28;20037;-69
2023/12/27 01:57:17;;;;;;;1.10;1.10;;;;;;;;;;5019648;28;20100;-67
2023/12/27 01:59:44;;;;;;;1.40;1.30;;;;;;;;;;5011959;28;20076;-67
2023/12/27 02:02:10;;;;;;;1.20;1.20;;;;;;;;;;5022193;28;20021;-66
2023/12/27 02:04:37;;;;;;;1.10;1.10;;;;;;;;;;5018090;28;20080;-67
2023/12/27 02:07:03;;;;;;;1.10;1.10;;;;;;;;;;5016744;28;20441;-67
2023/12/27 02:09:29;;;;;;;1.98;1.20;;;;;;;;;;5020522;28;20053;-67
2023/12/27 02:11:56;;;;;;;1.00;1.00;;;;;;;;;;5023537;28;20041;-66
2023/12/27 02:14:22;;;;;;;1.20;1.20;;;;;;;;;;5024073;28;20404;-66
2023/12/27 02:16:49;;;;;;;1.20;1.20;;;;;;;;;;5023335;28;20473;-68
2023/12/27 02:19:20;;;;;;;1.10;1.10;;;;;;;;;;5016083;28;20541;-67
2023/12/27 02:21:48;;;;;;;1.38;1.35;;;;;;;;;;5022123;28;20037;-67
2023/12/27 02:24:16;;;;;;;1.13;1.13;;;;;;;;;;5018403;28;20060;-67
2023/12/27 02:26:42;;;;;;;1.10;1.10;;;;;;;;;;5018779;28;20518;-68
2023/12/27 02:29:09;;;;;;;1.30;1.30;;;;;;;;;;5011583;28;20377;-67
2023/12/27 02:31:35;;;;;;;1.00;1.00;;;;;;;;;;5038448;28;20056;-67
2023/12/27 02:34:01;;;;;;;1.55;1.20;;;;;;;;;;5027614;28;20045;-68
2023/12/27 02:36:27;;;;;;;1.15;1.15;;;;;;;;;;5018672;28;20034;-68
2023/12/27 02:38:54;;;;;;;1.00;1.00;;;;;;;;;;5016462;28;20038;-68
2023/12/27 02:41:20;;;;;;;1.00;1.00;;;;;;;;;;5018338;28;21314;-68
2023/12/27 02:43:46;;;;;;;1.00;1.00;;;;;;;;;;5017137;28;20054;-68
2023/12/27 02:46:13;;;;;;;1.00;1.00;;;;;;;;;;5016383;28;20025;-68
2023/12/27 02:48:39;;;;;;;1.25;1.25;;;;;;;;;;5019012;28;20021;-67
2023/12/27 02:51:06;;;;;;;1.00;1.00;;;;;;;;;;5014718;28;20048;-67
2023/12/27 02:53:32;;;;;;;2.30;1.10;;;;;;;;;;5023149;28;20060;-68
2023/12/27 02:55:58;;;;;;;0.90;0.90;;;;;;;;;;5018327;28;20385;-67
2023/12/27 02:58:24;;;;;;;2.35;1.10;;;;;;;;;;5020697;28;20057;-68
2023/12/27 03:00:51;;;;;;;1.10;1.10;;;;;;;;;;5024186;28;20034;-68
2023/12/27 03:03:17;;;;;;;6.05;1.15;;;;;;;;;;5020178;28;20025;-68
2023/12/27 03:05:43;;;;;;;1.00;1.00;;;;;;;;;;5022286;28;20112;-68
2023/12/27 03:08:09;;;;;;;1.15;1.15;;;;;;;;;;5021235;28;20025;-68
2023/12/27 03:10:35;;;;;;;1.35;1.27;;;;;;;;;;5024248;28;20084;-68
2023/12/27 03:13:01;;;;;;;1.00;1.00;;;;;;;;;;5016843;28;20438;-68
2023/12/27 03:15:28;;;;;;;0.98;0.98;;;;;;;;;;5024377;28;20433;-67
2023/12/27 03:17:54;;;;;;;1.02;1.02;;;;;;;;;;5027328;28;20124;-68
2023/12/27 03:20:20;;;;;;;0.90;0.90;;;;;;;;;;5015671;28;20783;-67
2023/12/27 03:22:47;;;;;;;1.10;1.10;;;;;;;;;;5020945;28;20474;-67
2023/12/27 03:25:14;;;;;;;1.17;1.02;;;;;;;;;;5013681;28;20026;-67
2023/12/27 03:27:41;;;;;;;1.20;1.20;;;;;;;;;;5022929;28;20370;-67
2023/12/27 03:30:08;;;;;;;2.40;1.45;;;;;;;;;;5019520;28;20063;-67
2023/12/27 03:32:34;;;;;;;1.17;1.17;;;;;;;;;;5015020;28;20497;-68
2023/12/27 03:35:01;;;;;;;1.25;1.25;;;;;;;;;;5017287;28;20489;-68
2023/12/27 03:37:27;;;;;;;1.00;1.00;;;;;;;;;;5013917;28;20033;-68
2023/12/27 03:39:53;;;;;;;1.15;1.15;;;;;;;;;;5020720;28;20090;-68
2023/12/27 03:42:19;;;;;;;1.25;1.25;;;;;;;;;;5016095;28;20036;-68
2023/12/27 03:44:52;;;;;;;1.10;1.10;;;;;;;;;;5017411;28;20339;-68
2023/12/27 03:47:18;;;;;;;0.90;0.90;;;;;;;;;;5022672;28;20026;-68
2023/12/27 03:49:45;;;;;;;1.33;1.33;;;;;;;;;;5021780;28;20117;-68
2023/12/27 03:52:11;;;;;;;2.28;1.20;;;;;;;;;;5025935;28;20090;-68
2023/12/27 03:54:38;;;;;;;1.20;1.10;;;;;;;;;;5018666;28;20095;-68
2023/12/27 03:57:04;;;;;;;1.10;1.10;;;;;;;;;;5017585;28;20025;-69
2023/12/27 03:59:31;;;;;;;1.02;1.02;;;;;;;;;;5024472;28;20061;-69
2023/12/27 04:01:57;;;;;;;1.00;1.00;;;;;;;;;;5025641;28;20026;-68
2023/12/27 04:04:23;;;;;;;1.05;1.05;;;;;;;;;;5025081;28;20078;-68
2023/12/27 04:06:49;;;;;;;1.10;1.10;;;;;;;;;;5021779;28;20032;-68
2023/12/27 04:09:16;;;;;;;1.00;1.00;;;;;;;;;;5045909;28;20119;-69
2023/12/27 04:11:45;;;;;;;0.90;0.90;;;;;;;;;;5016649;28;20044;-68
2023/12/27 04:14:14;;;;;;;1.00;1.00;;;;;;;;;;5021054;28;20029;-68
2023/12/27 04:16:41;;;;;;;1.00;1.00;;;;;;;;;;5018431;28;20021;-68
2023/12/27 04:19:08;;;;;;;1.00;1.00;;;;;;;;;;5014350;28;20240;-68
2023/12/27 04:21:34;;;;;;;1.40;1.40;;;;;;;;;;5019485;28;20591;-68
2023/12/27 04:24:00;;;;;;;1.35;1.25;;;;;;;;;;5022386;28;20358;-67
2023/12/27 04:26:26;;;;;;;1.00;1.00;;;;;;;;;;5023287;28;20072;-68
2023/12/27 04:28:53;;;;;;;1.23;1.10;;;;;;;;;;5021378;28;20049;-69
2023/12/27 04:31:19;;;;;;;0.90;0.90;;;;;;;;;;5018976;28;20366;-68
2023/12/27 04:33:45;;;;;;;1.00;1.00;;;;;;;;;;5034613;28;20395;-69
2023/12/27 04:36:11;;;;;;;1.08;1.08;;;;;;;;;;5026338;28;20097;-69
2023/12/27 04:38:37;;;;;;;1.10;1.10;;;;;;;;;;5037923;28;20040;-69
2023/12/27 04:41:08;;;;;;;1.00;1.00;;;;;;;;;;5018182;28;20545;-69
2023/12/27 04:43:35;;;;;;;1.00;1.00;;;;;;;;;;5040118;28;20376;-68
2023/12/27 04:46:06;;;;;;;3.63;1.20;;;;;;;;;;5021361;28;20041;-68
2023/12/27 04:48:33;;;;;;;0.90;0.90;;;;;;;;;;5015132;28;20028;-69
2023/12/27 04:50:59;;;;;;;1.00;1.00;;;;;;;;;;5020246;28;20586;-68
2023/12/27 04:53:26;;;;;;;1.00;1.00;;;;;;;;;;5023547;28;20037;-68
2023/12/27 04:55:52;;;;;;;0.88;0.88;;;;;;;;;;5027758;28;20113;-69
2023/12/27 04:58:23;;;;;;;1.00;1.00;;;;;;;;;;5026719;28;20046;-70
2023/12/27 05:00:50;;;;;;;0.95;0.95;;;;;;;;;;5016583;28;20036;-70
2023/12/27 05:03:16;;;;;;;0.90;0.90;;;;;;;;;;5026905;28;20494;-72
2023/12/27 05:05:42;;;;;;;1.20;1.15;;;;;;;;;;5029055;28;20448;-69
2023/12/27 05:08:09;;;;;;;0.98;0.98;;;;;;;;;;5025877;28;20025;-70
2023/12/27 05:10:35;;;;;;;1.00;1.00;;;;;;;;;;5029336;28;20052;-71
2023/12/27 05:13:01;;;;;;;1.00;1.00;;;;;;;;;;5016575;28;20144;-71
2023/12/27 05:15:27;;;;;;;0.80;0.80;;;;;;;;;;5021851;28;20108;-70
2023/12/27 05:17:53;;;;;;;0.90;0.90;;;;;;;;;;5021603;28;20505;-71
2023/12/27 05:20:20;;;;;;;0.90;0.90;;;;;;;;;;5027096;28;20032;-71
2023/12/27 05:22:46;;;;;;;0.90;0.90;;;;;;;;;;5025886;28;20025;-71
2023/12/27 05:25:12;;;;;;;1.15;1.15;;;;;;;;;;5021889;28;20363;-71
2023/12/27 05:27:38;;;;;;;0.90;0.90;;;;;;;;;;5026503;28;20029;-71
2023/12/27 05:30:08;;;;;;;0.90;0.90;;;;;;;;;;5027106;28;20396;-72
2023/12/27 05:32:34;;;;;;;0.98;0.98;;;;;;;;;;5015907;28;20344;-72
2023/12/27 05:35:00;;;;;;;5.30;1.13;;;;;;;;;;5024083;28;20034;-71
2023/12/27 05:37:27;;;;;;;0.88;0.88;;;;;;;;;;5023923;28;20029;-71
2023/12/27 05:39:53;;;;;;;0.93;0.93;;;;;;;;;;5028612;28;20116;-71
2023/12/27 05:42:19;;;;;;;0.70;0.70;;;;;;;;;;5017487;28;20033;-72
2023/12/27 05:44:45;;;;;;;1.27;0.95;;;;;;;;;;5022288;28;20025;-71
2023/12/27 05:47:12;;;;;;;0.90;0.90;;;;;;;;;;5033321;28;20411;-72
2023/12/27 05:49:38;;;;;;;1.05;1.05;;;;;;;;;;5017829;28;20025;-71
2023/12/27 05:52:05;;;;;;;0.80;0.80;;;;;;;;;;5031373;28;20033;-71
2023/12/27 05:54:31;;;;;;;2.15;1.30;;;;;;;;;;5022149;28;20479;-71
2023/12/27 05:56:57;;;;;;;0.90;0.90;;;;;;;;;;5032307;28;20029;-71
2023/12/27 05:59:23;;;;;;;1.85;1.10;;;;;;;;;;5022976;28;20096;-72
2023/12/27 06:01:54;;;;;;;0.90;0.90;;;;;;;;;;5025995;28;20053;-72
2023/12/27 06:04:21;;;;;;;0.80;0.80;;;;;;;;;;5026077;28;20109;-72
2023/12/27 06:06:49;;;;;;;1.00;1.00;;;;;;;;;;5021260;28;20251;-71
2023/12/27 06:09:18;;;;;;;1.10;1.10;;;;;;;;;;5022689;28;20018;-72
2023/12/27 06:11:45;;;;;;;1.00;1.00;;;;;;;;;;5026269;28;20088;-71
2023/12/27 06:14:11;;;;;;;1.00;1.00;;;;;;;;;;5023462;28;20783;-72
2023/12/27 06:16:37;;;;;;;0.80;0.80;;;;;;;;;;5019805;28;20034;-71
2023/12/27 06:19:04;;;;;;;1.10;1.10;;;;;;;;;;5020572;28;20030;-71
2023/12/27 06:21:30;;;;;;;1.00;1.00;;;;;;;;;;5018862;28;20048;-71
2023/12/27 06:23:57;;;;;;;0.80;0.80;;;;;;;;;;5023418;28;20034;-71
2023/12/27 06:26:23;;;;;;;1.17;1.05;;;;;;;;;;5019244;28;20495;-72
2023/12/27 06:28:49;;;;;;;1.00;1.00;;;;;;;;;;5027240;28;20033;-71
2023/12/27 06:31:22;;;;;;;1.00;1.00;;;;;;;;;;5021754;28;20037;-71
2023/12/27 06:33:49;;;;;;;3.08;1.30;;;;;;;;;;5027759;28;20037;-72
2023/12/27 06:36:15;;;;;;;1.10;1.10;;;;;;;;;;5029216;28;20071;-72
2023/12/27 06:38:45;;;;;;;1.00;1.00;;;;;;;;;;5022587;28;20038;-71
2023/12/27 06:41:12;;;;;;;1.00;1.00;;;;;;;;;;5031715;28;20428;-73
2023/12/27 06:43:38;;;;;;;1.10;1.10;;;;;;;;;;5019858;28;20076;-72
2023/12/27 06:46:05;;;;;;;0.93;0.93;;;;;;;;;;5023951;28;20025;-71
2023/12/27 06:48:31;;;;;;;1.55;1.17;;;;;;;;;;5026657;28;20396;-71
2023/12/27 06:50:58;;;;;;;1.15;1.10;;;;;;;;;;5021722;28;20037;-71
2023/12/27 06:53:24;;;;;;;2.80;1.60;;;;;;;;;;5015117;28;20109;-72
2023/12/27 06:55:50;;;;;;;2.00;1.90;;;;;;;;;;5019602;28;20064;-71
2023/12/27 06:58:18;;;;;;;2.88;1.65;;;;;;;;;;5026212;28;20060;-71
2023/12/27 07:00:44;;;;;;;1.10;1.10;;;;;;;;;;5026585;28;20013;-72
2023/12/27 07:03:11;;;;;;;4.72;1.63;;;;;;;;;;5028425;28;20414;-72
2023/12/27 07:05:38;;;;;;;2.97;1.50;;;;;;;;;;5023647;28;20598;-71
2023/12/27 07:08:05;;;;;;;1.67;1.42;;;;;;;;;;5027748;28;20033;-71
2023/12/27 07:10:32;;;;;;;2.28;1.95;;;;;;;;;;5029022;28;20057;-72
2023/12/27 07:12:58;;;;;;;2.00;1.48;;;;;;;;;;5032676;28;20089;-70
2023/12/27 07:15:24;;;;;;;3.30;1.52;;;;;;;;;;5025666;28;20039;-71
2023/12/27 07:17:50;;;;;;;3.60;1.45;;;;;;;;;;5022370;28;20049;-72
2023/12/27 07:20:17;;;;;;;1.80;1.30;;;;;;;;;;5023554;28;20423;-72
2023/12/27 07:22:43;;;;;;;5.22;1.80;;;;;;;;;;5028011;28;20099;-71
2023/12/27 07:25:09;;;;;;;3.70;1.40;;;;;;;;;;5025695;28;20124;-71
2023/12/27 07:27:35;;;;;;;2.38;1.45;;;;;;;;;;5025923;28;20032;-71
2023/12/27 07:30:06;;;;;;;3.20;1.27;;;;;;;;;;5024505;28;20041;-72
2023/12/27 07:32:32;;;;;;;4.13;1.42;;;;;;;;;;5021544;28;20563;-72
2023/12/27 07:34:59;;;;;;;3.25;1.17;;;;;;;;;;5018863;28;20084;-71
2023/12/27 07:37:25;;;;;;;4.25;2.90;;;;;;;;;;5027670;28;20029;-71
2023/12/27 07:39:51;;;;;;;3.60;1.45;;;;;;;;;;5027150;28;20033;-71
2023/12/27 07:42:18;;;;;;;7.15;1.90;;;;;;;;;;5020257;28;20049;-71
2023/12/27 07:44:44;;;;;;;2.17;1.60;;;;;;;;;;5022264;28;20021;-72
2023/12/27 07:47:10;;;;;;;4.53;1.85;;;;;;;;;;5020758;28;20026;-71
2023/12/27 07:49:36;;;;;;;4.18;1.33;;;;;;;;;;5024529;28;20045;-72
2023/12/27 07:52:03;;;;;;;1.17;1.08;;;;;;;;;;5024406;28;20022;-71
2023/12/27 07:54:31;;;;;;;5.78;1.55;;;;;;;;;;5030227;28;20064;-71
2023/12/27 07:56:57;;;;;;;4.25;1.30;;;;;;;;;;4995762;28;20123;-71
2023/12/27 07:59:26;;;;;;;4.95;1.70;;;;;;;;;;5022898;28;20407;-71
2023/12/27 08:01:52;;;;;;;1.58;1.20;;;;;;;;;;5025312;28;20033;-71
2023/12/27 08:04:19;;;;;;;1.15;1.13;;;;;;;;;;5028007;28;20029;-71
2023/12/27 08:06:49;;;;;;;1.40;1.30;;;;;;;;;;5019808;28;20026;-71
2023/12/27 08:09:15;;;;;;;6.05;1.58;;;;;;;;;;5027515;28;20405;-71
2023/12/27 08:11:41;;;;;;;3.67;1.88;;;;;;;;;;5023965;28;20034;-71
2023/12/27 08:14:07;;;;;;;1.58;1.48;;;;;;;;;;5026617;28;20084;-71
2023/12/27 08:16:34;;;;;;;2.17;1.70;;;;;;;;;;5032816;28;20151;-71
2023/12/27 08:19:00;;;;;;;2.45;1.52;;;;;;;;;;5026791;28;20026;-71
2023/12/27 08:21:26;;;;;;;1.95;1.85;;;;;;;;;;5028718;28;20029;-71
2023/12/27 08:23:53;;;;;;;2.60;1.50;;;;;;;;;;5027212;28;20029;-72
2023/12/27 08:26:20;;;;;;;2.92;1.35;;;;;;;;;;5022053;28;20030;-71
2023/12/27 08:28:47;;;;;;;3.05;1.50;;;;;;;;;;5021935;28;20034;-71
2023/12/27 08:31:16;;;;;;;0.98;0.80;;;;;;;;;;5026382;28;20025;-71
2023/12/27 08:33:44;;;;;;;1.25;1.20;;;;;;;;;;5026716;28;20076;-70
2023/12/27 08:36:10;;;;;;;0.77;0.77;;;;;;;;;;5023031;28;20531;-72
2023/12/27 08:38:36;;;;;;;0.93;0.93;;;;;;;;;;5020054;28;20029;-72
2023/12/27 08:41:02;;;;;;;1.20;1.20;;;;;;;;;;5023228;28;20120;-71
2023/12/27 08:43:29;;;;;;;1.70;1.05;;;;;;;;;;5025147;28;20097;-72
2023/12/27 08:45:56;;;;;;;1.45;1.02;;;;;;;;;;5025627;28;20132;-71
2023/12/27 08:48:22;;;;;;;2.83;1.38;;;;;;;;;;5022921;28;20021;-72
2023/12/27 08:50:49;;;;;;;1.55;1.10;;;;;;;;;;5024026;28;20026;-72
2023/12/27 08:53:15;;;;;;;1.20;1.10;;;;;;;;;;5023003;28;20032;-71
2023/12/27 08:55:41;;;;;;;3.10;1.33;;;;;;;;;;5023152;28;20033;-71
2023/12/27 08:58:18;;;;;;;1.23;1.13;;;;;;;;;;5022843;28;20045;-72
2023/12/27 09:00:45;;;;;;;1.50;1.30;;;;;;;;;;5027137;28;20432;-71
2023/12/27 09:03:11;;;;;;;6.88;2.70;;;;;;;;;;5028883;28;20120;-71
2023/12/27 09:05:37;;;;;;;5.65;2.38;;;;;;;;;;5024553;28;20025;-71
2023/12/27 09:08:04;;;;;;;4.70;1.92;;;;;;;;;;5028420;28;20524;-71
2023/12/27 09:10:30;;;;;;;3.80;1.90;;;;;;;;;;5029591;28;20548;-71
2023/12/27 09:12:56;;;;;;;1.40;1.30;;;;;;;;;;5018819;28;20493;-71
2023/12/27 09:15:22;;;;;;;0.93;0.90;;;;;;;;;;5024645;28;20467;-71
2023/12/27 09:17:49;;;;;;;1.00;1.00;;;;;;;;;;5029630;28;20044;-71
2023/12/27 09:20:15;;;;;;;1.02;1.02;;;;;;;;;;5022973;28;20034;-73
2023/12/27 09:22:41;;;;;;;0.95;0.95;;;;;;;;;;5018063;28;20033;-73
2023/12/27 09:25:08;;;;;;;1.02;1.02;;;;;;;;;;5026444;28;20318;-72
2023/12/27 09:27:34;;;;;;;1.02;1.02;;;;;;;;;;5023622;28;20017;-73
2023/12/27 09:30:00;;;;;;;1.00;1.00;;;;;;;;;;5020760;28;20026;-73
2023/12/27 09:32:27;;;;;;;1.00;1.00;;;;;;;;;;5029821;28;20603;-73
2023/12/27 09:34:53;;;;;;;0.90;0.90;;;;;;;;;;5021813;28;20099;-73
2023/12/27 09:37:19;;;;;;;1.00;1.00;;;;;;;;;;5024286;28;20769;-72
2023/12/27 09:39:50;;;;;;;1.08;1.08;;;;;;;;;;5025991;28;20071;-72
2023/12/27 09:42:17;;;;;;;0.98;0.90;;;;;;;;;;5024639;28;20093;-72
2023/12/27 09:44:46;;;;;;;1.58;1.48;;;;;;;;;;5023239;28;20065;-71
2023/12/27 09:47:13;;;;;;;1.80;1.70;;;;;;;;;;5024203;28;20052;-72
2023/12/27 09:49:40;;;;;;;1.20;1.20;;;;;;;;;;5030636;28;20022;-73
2023/12/27 09:52:08;;;;;;;1.65;0.95;;;;;;;;;;5025184;28;20026;-71
2023/12/27 09:54:35;;;;;;;0.90;0.90;;;;;;;;;;5024499;28;20121;-72
2023/12/27 09:57:01;;;;;;;1.65;1.20;;;;;;;;;;5027046;28;20048;-72
2023/12/27 09:59:30;;;;;;;1.10;1.10;;;;;;;;;;5022937;28;20065;-72
2023/12/27 10:02:00;;;;;;;1.08;1.08;;;;;;;;;;5026694;28;20124;-71
2023/12/27 10:04:35;;;;;;;1.15;1.15;;;;;;;;;;5023827;28;20030;-73
2023/12/27 10:07:01;;;;;;;1.10;1.10;;;;;;;;;;5016182;28;20037;-74
2023/12/27 10:09:28;;;;;;;1.10;1.10;;;;;;;;;;5023312;28;20159;-72
2023/12/27 10:11:55;;;;;;;1.10;1.10;;;;;;;;;;5009700;28;20475;-68
2023/12/27 10:14:22;;;;;;;1.30;1.30;;;;;;;;;;5024824;28;21382;-76
2023/12/27 10:16:48;;;;;;;1.00;1.00;;;;;;;;;;5025565;28;20035;-76
2023/12/27 10:19:33;;;;;;;1.27;1.27;;;;;;;;;;5027187;28;20037;-76
2023/12/27 10:21:59;;;;;;;1.30;1.30;;;;;;;;;;5027331;28;20033;-76
2023/12/27 10:24:28;;;;;;;1.30;1.30;;;;;;;;;;5027582;28;20029;-76
2023/12/27 10:26:58;;;;;;;1.58;1.48;;;;;;;;;;5029136;28;20516;-76
2023/12/27 10:29:24;;;;;;;1.40;1.30;;;;;;;;;;5027285;28;20057;-76
2023/12/27 10:31:51;;;;;;;2.33;1.55;;;;;;;;;;5030326;28;20191;-75
2023/12/27 10:34:18;;;;;;;1.40;1.30;;;;;;;;;;5029723;28;20032;-76
2023/12/27 10:36:44;;;;;;;1.10;1.10;;;;;;;;;;5027778;28;20030;-77
2023/12/27 10:39:10;;;;;;;1.10;1.10;;;;;;;;;;5032402;28;20029;-76
2023/12/27 10:41:40;;;;;;;1.10;1.10;;;;;;;;;;5026954;28;20509;-77
2023/12/27 10:44:06;;;;;;;1.20;1.20;;;;;;;;;;5028170;28;20049;-76
2023/12/27 10:46:33;;;;;;;1.10;1.10;;;;;;;;;;5028710;28;20034;-76
2023/12/27 10:49:03;;;;;;;1.17;1.17;;;;;;;;;;5028939;28;20065;-76
2023/12/27 10:51:30;;;;;;;1.42;1.33;;;;;;;;;;5028403;28;20099;-75
2023/12/27 10:54:01;;;;;;;1.20;1.20;;;;;;;;;;5028941;28;20029;-76
2023/12/27 10:56:27;;;;;;;1.10;1.10;;;;;;;;;;5027785;28;20033;-76
2023/12/27 10:58:53;;;;;;;1.50;1.40;;;;;;;;;;5029935;28;20077;-77
2023/12/27 11:01:20;;;;;;;1.20;1.20;;;;;;;;;;5025222;28;20497;-76
2023/12/27 11:03:47;;;;;;;1.20;1.20;;;;;;;;;;5024420;28;20481;-77
2023/12/27 11:06:16;;;;;;;1.20;1.20;;;;;;;;;;5042465;28;20022;-76
2023/12/27 11:08:45;;;;;;;1.40;1.40;;;;;;;;;;5034191;28;20497;-76
2023/12/27 11:11:13;;;;;;;1.33;1.33;;;;;;;;;;5025512;28;20037;-76
2023/12/27 11:13:40;;;;;;;1.30;1.30;;;;;;;;;;5022297;28;20057;-76
2023/12/27 11:16:07;;;;;;;1.17;1.17;;;;;;;;;;5029556;28;20030;-76
2023/12/27 11:18:36;;;;;;;1.30;1.20;;;;;;;;;;5027389;28;20033;-76
2023/12/27 11:21:02;;;;;;;1.10;1.10;;;;;;;;;;5030948;28;20501;-76
2023/12/27 11:23:28;;;;;;;1.15;1.15;;;;;;;;;;5031652;28;20026;-76
2023/12/27 11:25:56;;;;;;;1.00;1.00;;;;;;;;;;5034850;28;20033;-76
2023/12/27 11:28:23;;;;;;;1.10;1.10;;;;;;;;;;5032092;28;20028;-76
2023/12/27 11:30:49;;;;;;;1.13;1.13;;;;;;;;;;5027598;28;20029;-76
2023/12/27 11:33:21;;;;;;;1.20;1.20;;;;;;;;;;5030226;28;20063;-76
2023/12/27 11:35:51;;;;;;;1.45;1.45;;;;;;;;;;5021645;28;20045;-72
2023/12/27 11:38:23;;;;;;;1.38;1.38;;;;;;;;;;5028606;28;20568;-71
2023/12/27 11:40:52;;;;;;;1.10;1.10;;;;;;;;;;5027772;28;20083;-71
2023/12/27 11:43:22;;;;;;;1.13;1.13;;;;;;;;;;5030746;28;20021;-72
2023/12/27 11:46:01;;;;;;;1.60;1.52;;;;;;;;;;5025960;28;20022;-71
2023/12/27 11:48:32;;;;;;;1.40;1.30;;;;;;;;;;5025879;28;20029;-71
2023/12/27 11:51:00;;;;;;;1.50;1.40;;;;;;;;;;5027390;28;20041;-72
2023/12/27 11:53:26;;;;;;;1.20;1.20;;;;;;;;;;5025610;28;20045;-71
2023/12/27 11:55:53;;;;;;;1.20;1.20;;;;;;;;;;5025533;28;20526;-71
2023/12/27 11:58:32;;;;;;;1.05;1.05;;;;;;;;;;5027901;28;20045;-71
2023/12/27 12:01:19;;;;;;;1.20;1.20;;;;;;;;;;5029028;28;20409;-72
2023/12/27 12:03:47;;;;;;;1.30;1.30;;;;;;;;;;5022024;28;20040;-70
2023/12/27 12:06:22;;;;;;;1.20;1.20;;;;;;;;;;5027267;28;20037;-71
2023/12/27 12:08:48;;;;;;;3.15;1.95;;;;;;;;;;5025564;28;20026;-70
2023/12/27 12:11:15;;;;;;;3.30;2.30;;;;;;;;;;5025650;28;20469;-71
2023/12/27 12:13:42;;;;;;;2.60;1.92;;;;;;;;;;5031840;28;20037;-71
2023/12/27 12:16:08;;;;;;;4.30;2.70;;;;;;;;;;5026375;28;20400;-71
2023/12/27 12:18:35;;;;;;;5.10;2.60;;;;;;;;;;5026671;28;20061;-71
2023/12/27 12:21:03;;;;;;;1.77;1.67;;;;;;;;;;5028196;28;20040;-71
2023/12/27 12:23:30;;;;;;;1.75;1.63;;;;;;;;;;5023841;28;20036;-71
2023/12/27 12:26:00;;;;;;;2.67;1.70;;;;;;;;;;5026888;28;20029;-70
2023/12/27 12:28:28;;;;;;;1.48;1.38;;;;;;;;;;5027093;28;20633;-71
2023/12/27 12:30:57;;;;;;;1.65;1.55;;;;;;;;;;5023845;28;20060;-70
2023/12/27 12:33:24;;;;;;;2.45;1.60;;;;;;;;;;5033621;28;20025;-71
2023/12/27 12:35:55;;;;;;;6.90;2.83;;;;;;;;;;5021292;28;20114;-71
2023/12/27 12:38:32;;;;;;;;;;;;;;;;;;;;;
2023/12/27 12:40:58;;;;;;;1.70;1.60;;;;;;;;;;5026864;28;20076;-71
2023/12/27 12:43:26;;;;;;;1.45;1.33;;;;;;;;;;5024191;28;20037;-71
2023/12/27 12:45:52;;;;;;;1.20;1.20;;;;;;;;;;5025046;28;20607;-71
2023/12/27 12:48:18;;;;;;;1.73;1.38;;;;;;;;;;5026503;28;20100;-71
2023/12/27 12:50:45;;;;;;;1.38;1.30;;;;;;;;;;5025485;28;20492;-72
2023/12/27 12:53:16;;;;;;;1.88;1.42;;;;;;;;;;5026957;28;20029;-71
2023/12/27 12:55:44;;;;;;;4.82;1.98;;;;;;;;;;5024940;28;20034;-71
2023/12/27 12:58:13;;;;;;;4.57;1.80;;;;;;;;;;5029651;28;20069;-72
2023/12/27 13:00:40;;;;;;;2.90;2.03;;;;;;;;;;5023218;28;20036;-71
2023/12/27 13:03:08;;;;;;;1.95;1.73;;;;;;;;;;5025193;28;20022;-72
2023/12/27 13:05:34;;;;;;;3.78;2.38;;;;;;;;;;5027136;28;20417;-72
2023/12/27 13:08:11;;;;;;;2.42;2.22;;;;;;;;;;5040937;28;20025;-72
2023/12/27 13:10:38;;;;;;;2.80;2.13;;;;;;;;;;5010148;28;20084;-75
2023/12/27 13:13:04;;;;;;;2.25;2.05;;;;;;;;;;5023768;28;20041;-75
2023/12/27 13:15:30;;;;;;;1.95;1.85;;;;;;;;;;5026315;28;20029;-76
2023/12/27 13:17:57;;;;;;;2.20;2.00;;;;;;;;;;5033121;28;20033;-75
2023/12/27 13:20:24;;;;;;;1.60;1.50;;;;;;;;;;5023896;28;20038;-75
2023/12/27 13:22:50;;;;;;;2.08;1.88;;;;;;;;;;5032446;28;20029;-76
2023/12/27 13:25:17;;;;;;;1.77;1.65;;;;;;;;;;5024025;28;20026;-75
2023/12/27 13:27:45;;;;;;;1.95;1.80;;;;;;;;;;5036410;28;20536;-74
2023/12/27 13:30:11;;;;;;;3.10;1.85;;;;;;;;;;5028361;28;20044;-75
2023/12/27 13:32:38;;;;;;;2.15;1.95;;;;;;;;;;5025313;28;20155;-74
2023/12/27 13:35:04;;;;;;;1.85;1.75;;;;;;;;;;5025440;28;20417;-75
2023/12/27 13:37:30;;;;;;;1.83;1.73;;;;;;;;;;5056479;28;20033;-75
2023/12/27 13:39:57;;;;;;;1.95;1.85;;;;;;;;;;5027115;28;20501;-74
2023/12/27 13:42:23;;;;;;;3.42;2.80;;;;;;;;;;5027931;28;20461;-73
2023/12/27 13:44:50;;;;;;;7.90;5.18;;;;;;;;;;5032290;28;20037;-74
2023/12/27 13:47:16;;;;;;;8.32;6.65;;;;;;;;;;5021129;28;20464;-74
2023/12/27 13:49:44;;;;;;;11.73;9.25;;;;;;;;;;5030827;28;20022;-74
2023/12/27 13:52:11;;;;;;;7.20;5.50;;;;;;;;;;5026403;28;20032;-75
2023/12/27 13:54:38;;;;;;;3.22;2.92;;;;;;;;;;5024845;28;20033;-76
2023/12/27 13:57:04;;;;;;;4.95;4.03;;;;;;;;;;5022554;28;20022;-75
2023/12/27 13:59:30;;;;;;;3.92;3.42;;;;;;;;;;5026449;28;20038;-75
2023/12/27 14:01:57;;;;;;;5.22;3.40;;;;;;;;;;5030185;28;20091;-75
2023/12/27 14:04:26;;;;;;;3.25;2.95;;;;;;;;;;5025836;28;20411;-75
2023/12/27 14:06:55;;;;;;;3.90;2.35;;;;;;;;;;5022482;28;20028;-75
2023/12/27 14:09:23;;;;;;;2.38;2.00;;;;;;;;;;5022043;28;20021;-75
2023/12/27 14:11:50;;;;;;;1.95;1.77;;;;;;;;;;5023949;28;21385;-74
2023/12/27 14:14:16;;;;;;;1.80;1.67;;;;;;;;;;5027271;28;20026;-74
2023/12/27 14:16:43;;;;;;;1.70;1.60;;;;;;;;;;5023740;28;20046;-74
2023/12/27 14:19:09;;;;;;;2.97;1.77;;;;;;;;;;5027831;28;20025;-75
2023/12/27 14:21:36;;;;;;;2.17;1.98;;;;;;;;;;5025487;28;20028;-71
2023/12/27 14:24:06;;;;;;;1.70;1.60;;;;;;;;;;5019624;28;20107;-72
2023/12/27 14:26:33;;;;;;;2.13;1.60;;;;;;;;;;5026164;28;20021;-73
2023/12/27 14:29:00;;;;;;;1.35;1.35;;;;;;;;;;5028072;28;20513;-73
2023/12/27 14:31:27;;;;;;;2.95;1.40;;;;;;;;;;5028139;28;20040;-72
2023/12/27 14:33:54;;;;;;;1.63;1.52;;;;;;;;;;5031436;28;20064;-71
2023/12/27 14:36:20;;;;;;;1.77;1.67;;;;;;;;;;5024071;28;20048;-71
2023/12/27 14:38:52;;;;;;;3.75;2.00;;;;;;;;;;5027616;28;20177;-72
2023/12/27 14:41:19;;;;;;;1.58;1.30;;;;;;;;;;5023218;28;20037;-71